createdAt,value
2022-09-28T00:00:11.329Z,2.35
2022-09-28T00:01:17.923Z,2.50
2022-09-28T00:02:20.029Z,2.50
2022-09-28T00:03:21.786Z,2.50
2022-09-28T00:04:23.920Z,2.78
2022-09-28T00:05:29.112Z,2.40
2022-09-28T00:06:31.034Z,2.75
2022-09-28T00:07:32.859Z,2.35
2022-09-28T00:08:35.932Z,2.50
2022-09-28T00:09:38.395Z,2.53
2022-09-28T00:10:41.619Z,2.60
2022-09-28T00:11:46.907Z,2.97
2022-09-28T00:12:49.489Z,2.30
2022-09-28T00:13:53.020Z,2.80
2022-09-28T00:14:54.701Z,2.63
2022-09-28T00:16:00.998Z,2.67
2022-09-28T00:17:02.798Z,2.75
2022-09-28T00:18:04.576Z,2.50
2022-09-28T00:19:06.597Z,2.55
2022-09-28T00:20:08.724Z,2.90
2022-09-28T00:21:17.145Z,2.70
2022-09-28T00:22:18.808Z,2.80
2022-09-28T00:23:20.603Z,2.40
2022-09-28T00:24:27.375Z,2.90
2022-09-28T00:25:30.116Z,2.83
2022-09-28T00:26:33.212Z,2.60
2022-09-28T00:27:34.906Z,2.80
2022-09-28T00:28:36.543Z,2.45
2022-09-28T00:29:38.701Z,2.60
2022-09-28T00:30:40.365Z,2.75
2022-09-28T00:31:42.379Z,2.60
2022-09-28T00:32:44.103Z,2.72
2022-09-28T00:33:49.576Z,2.70
2022-09-28T00:34:52.048Z,2.97
2022-09-28T00:35:58.202Z,2.70
2022-09-28T00:37:00.776Z,2.80
2022-09-28T00:38:04.011Z,2.70
2022-09-28T00:39:07.785Z,2.85
2022-09-28T00:40:09.780Z,2.60
2022-09-28T00:41:11.880Z,3.00
2022-09-28T00:42:16.768Z,2.75
2022-09-28T00:43:20.575Z,2.97
2022-09-28T00:44:35.923Z,2.40
2022-09-28T00:45:37.757Z,2.58
2022-09-28T00:46:40.340Z,2.78
2022-09-28T00:47:51.849Z,2.67
2022-09-28T00:49:03.124Z,2.75
2022-09-28T00:51:16.544Z,2.60
2022-09-28T00:52:34.094Z,2.63
2022-09-28T00:53:39.327Z,3.28
2022-09-28T00:54:43.540Z,2.45
2022-09-28T00:55:51.959Z,2.42
2022-09-28T00:56:53.720Z,2.67
2022-09-28T00:57:58.083Z,2.72
2022-09-28T00:59:01.197Z,2.60
2022-09-28T01:00:05.128Z,2.58
2022-09-28T01:01:07.326Z,2.70
2022-09-28T01:02:10.579Z,3.10
2022-09-28T01:03:14.257Z,2.88
2022-09-28T01:04:16.277Z,2.60
2022-09-28T01:05:19.206Z,2.60
2022-09-28T01:06:23.477Z,2.80
2022-09-28T01:07:25.635Z,2.67
2022-09-28T01:08:29.308Z,2.42
2022-09-28T01:09:32.408Z,2.58
2022-09-28T01:10:34.810Z,2.85
2022-09-28T01:11:38.734Z,2.95
2022-09-28T01:12:40.525Z,2.85
2022-09-28T01:13:43.338Z,2.38
2022-09-28T01:14:45.549Z,3.00
2022-09-28T01:15:57.769Z,3.00
2022-09-28T01:17:17.876Z,2.83
2022-09-28T01:18:29.747Z,3.00
2022-09-28T01:20:06.411Z,2.92
2022-09-28T01:21:20.816Z,2.60
2022-09-28T01:22:33.128Z,2.97
2022-09-28T01:24:05.603Z,2.53
2022-09-28T01:25:12.209Z,3.10
2022-09-28T01:26:38.513Z,2.95
2022-09-28T01:27:40.285Z,3.00
2022-09-28T01:28:46.184Z,2.83
2022-09-28T01:30:07.891Z,3.08
2022-09-28T01:32:52.272Z,2.42
2022-09-28T01:34:15.240Z,2.92
2022-09-28T01:35:20.242Z,2.70
2022-09-28T01:36:29.952Z,2.67
2022-09-28T01:37:41.055Z,2.60
2022-09-28T01:38:53.344Z,3.00
2022-09-28T01:39:57.045Z,2.80
2022-09-28T01:41:00.848Z,3.20
2022-09-28T01:42:11.949Z,2.55
2022-09-28T01:43:42.735Z,2.88
2022-09-28T01:44:47.557Z,2.50
2022-09-28T01:45:53.274Z,2.67
2022-09-28T01:46:55.229Z,2.60
2022-09-28T01:48:01.968Z,2.60
2022-09-28T01:49:19.170Z,2.70
2022-09-28T01:50:25.653Z,3.00
2022-09-28T01:51:41.146Z,2.63
2022-09-28T01:53:06.371Z,2.63
2022-09-28T01:54:16.598Z,2.60
2022-09-28T01:55:26.315Z,3.00
2022-09-28T01:56:34.287Z,3.00
2022-09-28T01:58:05.682Z,2.80
2022-09-28T01:59:14.891Z,2.70
2022-09-28T02:00:19.004Z,3.25
2022-09-28T02:01:39.710Z,2.83
2022-09-28T02:02:56.185Z,3.20
2022-09-28T02:04:10.210Z,3.10
2022-09-28T02:05:16.360Z,3.05
2022-09-28T02:06:34.976Z,2.97
2022-09-28T02:07:46.123Z,2.75
2022-09-28T02:08:56.666Z,2.70
2022-09-28T02:10:13.119Z,2.72
2022-09-28T02:11:17.293Z,3.13
2022-09-28T02:12:33.487Z,2.67
2022-09-28T02:13:42.656Z,2.92
2022-09-28T02:14:49.072Z,2.80
2022-09-28T02:15:56.076Z,2.83
2022-09-28T02:16:58.477Z,3.00
2022-09-28T02:18:00.475Z,2.40
2022-09-28T02:19:03.885Z,2.90
2022-09-28T02:20:06.935Z,2.70
2022-09-28T02:21:16.137Z,2.65
2022-09-28T02:22:34.349Z,2.60
2022-09-28T02:23:39.772Z,2.33
2022-09-28T02:24:59.686Z,2.70
2022-09-28T02:26:05.630Z,2.60
2022-09-28T02:27:18.950Z,2.60
2022-09-28T02:28:21.066Z,2.55
2022-09-28T02:29:24.268Z,2.80
2022-09-28T02:30:26.753Z,2.58
2022-09-28T02:31:28.842Z,2.65
2022-09-28T02:32:33.637Z,2.70
2022-09-28T02:33:38.802Z,2.67
2022-09-28T02:34:40.616Z,2.80
2022-09-28T02:35:43.148Z,2.78
2022-09-28T02:36:47.199Z,2.58
2022-09-28T02:37:50.524Z,2.40
2022-09-28T02:38:53.319Z,2.58
2022-09-28T02:39:55.425Z,2.40
2022-09-28T02:41:21.723Z,2.80
2022-09-28T02:43:01.314Z,2.42
2022-09-28T02:44:40.526Z,2.67
2022-09-28T02:46:10.319Z,2.60
2022-09-28T02:47:24.576Z,2.65
2022-09-28T02:49:20.413Z,2.70
2022-09-28T02:50:29.846Z,2.90
2022-09-28T02:51:44.236Z,2.47
2022-09-28T02:53:16.742Z,2.65
2022-09-28T02:54:55.425Z,2.63
2022-09-28T02:56:25.634Z,2.70
2022-09-28T02:58:03.678Z,2.80
2022-09-28T02:59:22.640Z,2.45
2022-09-28T03:00:25.340Z,2.40
2022-09-28T03:01:32.904Z,2.67
2022-09-28T03:03:04.385Z,2.70
2022-09-28T03:04:24.815Z,2.70
2022-09-28T03:05:41.643Z,2.50
2022-09-28T03:06:54.789Z,2.70
2022-09-28T03:08:00.983Z,2.75
2022-09-28T03:09:18.084Z,2.58
2022-09-28T03:10:37.489Z,2.63
2022-09-28T03:12:16.477Z,2.70
2022-09-28T03:13:18.626Z,2.55
2022-09-28T03:14:20.599Z,2.90
2022-09-28T03:15:28.794Z,2.72
2022-09-28T03:16:32.367Z,2.67
2022-09-28T03:17:34.107Z,2.78
2022-09-28T03:18:36.167Z,2.60
2022-09-28T03:19:38.053Z,2.78
2022-09-28T03:20:39.728Z,2.78
2022-09-28T03:21:42.177Z,2.70
2022-09-28T03:22:55.808Z,2.83
2022-09-28T03:24:06.398Z,3.13
2022-09-28T03:25:08.804Z,3.30
2022-09-28T03:26:14.974Z,3.40
2022-09-28T03:27:16.809Z,3.72
2022-09-28T03:28:18.994Z,3.42
2022-09-28T03:29:21.088Z,3.30
2022-09-28T03:30:22.936Z,3.30
2022-09-28T03:31:24.830Z,3.15
2022-09-28T03:32:26.835Z,3.20
2022-09-28T03:33:29.005Z,3.67
2022-09-28T03:34:30.787Z,3.63
2022-09-28T03:35:32.651Z,3.20
2022-09-28T03:36:34.445Z,3.13
2022-09-28T03:37:36.909Z,3.10
2022-09-28T03:38:38.887Z,2.95
2022-09-28T03:39:41.004Z,2.83
2022-09-28T03:40:43.265Z,2.90
2022-09-28T03:41:45.187Z,2.90
2022-09-28T03:42:46.862Z,2.95
2022-09-28T03:43:48.885Z,2.80
2022-09-28T03:44:50.617Z,2.72
2022-09-28T03:45:56.746Z,2.83
2022-09-28T03:46:58.487Z,2.45
2022-09-28T03:48:00.824Z,2.85
2022-09-28T03:49:03.096Z,2.85
2022-09-28T03:50:06.132Z,2.90
2022-09-28T03:51:10.596Z,3.38
2022-09-28T03:52:13.775Z,3.38
2022-09-28T03:53:15.627Z,3.58
2022-09-28T03:54:17.453Z,3.55
2022-09-28T03:55:19.329Z,4.38
2022-09-28T03:56:21.582Z,3.92
2022-09-28T03:57:23.228Z,3.55
2022-09-28T03:58:28.117Z,3.60
2022-09-28T03:59:30.876Z,3.97
2022-09-28T04:00:32.873Z,3.72
2022-09-28T04:01:34.874Z,3.42
2022-09-28T04:02:36.839Z,3.30
2022-09-28T04:03:38.581Z,2.75
2022-09-28T04:04:40.596Z,2.97
2022-09-28T04:05:52.891Z,3.05
2022-09-28T04:06:54.673Z,2.90
2022-09-28T04:07:57.891Z,3.30
2022-09-28T04:09:00.046Z,3.50
2022-09-28T04:10:02.968Z,3.10
2022-09-28T04:11:04.886Z,3.05
2022-09-28T04:12:07.469Z,3.00
2022-09-28T04:13:09.521Z,2.65
2022-09-28T04:14:11.218Z,3.08
2022-09-28T04:15:13.439Z,2.95
2022-09-28T04:16:15.915Z,3.05
2022-09-28T04:17:17.831Z,3.03
2022-09-28T04:18:19.866Z,3.08
2022-09-28T04:19:22.369Z,2.83
2022-09-28T04:20:24.041Z,2.80
2022-09-28T04:21:25.891Z,2.78
2022-09-28T04:22:27.749Z,2.88
2022-09-28T04:23:29.961Z,3.00
2022-09-28T04:24:31.711Z,3.13
2022-09-28T04:25:33.388Z,2.92
2022-09-28T04:26:35.152Z,3.30
2022-09-28T04:27:55.399Z,3.05
2022-09-28T04:29:16.094Z,2.67
2022-09-28T04:30:18.196Z,3.10
2022-09-28T04:31:23.752Z,3.30
2022-09-28T04:32:25.643Z,3.40
2022-09-28T04:33:27.431Z,2.97
2022-09-28T04:34:34.488Z,3.15
2022-09-28T04:35:37.720Z,3.83
2022-09-28T04:36:39.689Z,3.75
2022-09-28T04:37:41.709Z,3.10
2022-09-28T04:38:58.847Z,3.15
2022-09-28T04:40:00.915Z,2.92
2022-09-28T04:41:03.429Z,3.55
2022-09-28T04:42:05.711Z,2.58
2022-09-28T04:43:08.306Z,2.53
2022-09-28T04:44:10.423Z,3.03
2022-09-28T04:45:12.103Z,2.80
2022-09-28T04:46:14.761Z,2.90
2022-09-28T04:47:16.655Z,2.40
2022-09-28T04:48:18.475Z,3.28
2022-09-28T04:49:21.207Z,2.65
2022-09-28T04:50:22.919Z,3.25
2022-09-28T04:51:24.767Z,2.95
2022-09-28T04:52:27.368Z,2.63
2022-09-28T04:53:30.451Z,3.45
2022-09-28T04:54:32.310Z,3.38
2022-09-28T04:55:34.192Z,3.40
2022-09-28T04:56:36.091Z,2.72
2022-09-28T04:57:37.797Z,3.13
2022-09-28T04:58:40.536Z,2.72
2022-09-28T04:59:42.252Z,2.80
2022-09-28T05:00:44.105Z,2.42
2022-09-28T05:01:45.930Z,3.03
2022-09-28T05:02:47.610Z,2.45
2022-09-28T05:03:50.015Z,2.67
2022-09-28T05:04:53.468Z,2.60
2022-09-28T05:05:55.461Z,3.03
2022-09-28T05:06:57.867Z,2.58
2022-09-28T05:07:59.622Z,2.65
2022-09-28T05:09:01.439Z,2.55
2022-09-28T05:10:03.460Z,2.60
2022-09-28T05:11:07.550Z,2.70
2022-09-28T05:12:09.934Z,2.60
2022-09-28T05:13:13.344Z,2.20
2022-09-28T05:14:15.249Z,2.60
2022-09-28T05:15:16.999Z,2.40
2022-09-28T05:16:20.398Z,2.45
2022-09-28T05:17:23.119Z,2.28
2022-09-28T05:18:25.147Z,2.63
2022-09-28T05:19:26.924Z,2.50
2022-09-28T05:20:28.740Z,2.50
2022-09-28T05:21:31.129Z,2.38
2022-09-28T05:22:33.367Z,2.28
2022-09-28T05:23:35.004Z,2.60
2022-09-28T05:24:36.669Z,2.47
2022-09-28T05:25:39.702Z,2.30
2022-09-28T05:26:41.495Z,2.35
2022-09-28T05:27:43.297Z,2.50
2022-09-28T05:28:45.179Z,2.53
2022-09-28T05:29:47.004Z,2.60
2022-09-28T05:30:49.056Z,2.83
2022-09-28T05:31:50.891Z,2.47
2022-09-28T05:32:53.364Z,2.13
2022-09-28T05:33:55.443Z,2.38
2022-09-28T05:34:57.505Z,2.42
2022-09-28T05:36:01.690Z,2.10
2022-09-28T05:37:03.556Z,2.30
2022-09-28T05:38:05.717Z,2.47
2022-09-28T05:39:07.661Z,2.10
2022-09-28T05:40:10.346Z,2.80
2022-09-28T05:41:12.761Z,3.60
2022-09-28T05:42:14.591Z,2.88
2022-09-28T05:43:16.345Z,2.42
2022-09-28T05:44:27.498Z,2.22
2022-09-28T05:45:29.819Z,2.20
2022-09-28T05:46:31.808Z,1.83
2022-09-28T05:47:41.371Z,2.38
2022-09-28T05:48:43.366Z,2.72
2022-09-28T05:49:45.296Z,2.00
2022-09-28T05:50:51.936Z,2.30
2022-09-28T05:51:53.608Z,2.47
2022-09-28T05:53:02.784Z,2.20
2022-09-28T05:54:06.328Z,2.35
2022-09-28T05:55:09.088Z,2.10
2022-09-28T05:56:11.244Z,2.22
2022-09-28T05:57:14.013Z,2.28
2022-09-28T05:58:16.148Z,2.00
2022-09-28T05:59:17.982Z,2.10
2022-09-28T06:00:20.022Z,2.47
2022-09-28T06:01:21.885Z,2.25
2022-09-28T06:02:24.276Z,2.08
2022-09-28T06:03:26.154Z,2.55
2022-09-28T06:04:28.523Z,2.83
2022-09-28T06:05:32.058Z,2.28
2022-09-28T06:06:35.791Z,2.40
2022-09-28T06:07:37.722Z,2.50
2022-09-28T06:08:42.965Z,2.83
2022-09-28T06:09:45.258Z,2.40
2022-09-28T06:10:46.967Z,2.60
2022-09-28T06:11:51.019Z,2.30
2022-09-28T06:12:54.907Z,2.78
2022-09-28T06:13:56.961Z,2.50
2022-09-28T06:15:00.728Z,2.42
2022-09-28T06:16:09.107Z,2.53
2022-09-28T06:17:11.037Z,2.45
2022-09-28T06:18:15.030Z,2.40
2022-09-28T06:19:16.914Z,2.80
2022-09-28T06:20:18.791Z,2.30
2022-09-28T06:21:20.635Z,2.45
2022-09-28T06:22:22.501Z,2.55
2022-09-28T06:23:24.335Z,2.60
2022-09-28T06:24:26.188Z,2.75
2022-09-28T06:25:28.621Z,2.83
2022-09-28T06:26:31.111Z,2.67
2022-09-28T06:27:34.377Z,2.67
2022-09-28T06:28:36.461Z,2.60
2022-09-28T06:29:38.310Z,2.53
2022-09-28T06:30:41.492Z,2.70
2022-09-28T06:31:43.217Z,2.90
2022-09-28T06:32:45.077Z,2.70
2022-09-28T06:33:48.550Z,2.45
2022-09-28T06:34:55.417Z,2.35
2022-09-28T06:35:59.700Z,3.30
2022-09-28T06:37:04.633Z,2.33
2022-09-28T06:38:06.920Z,2.70
2022-09-28T06:39:08.665Z,2.30
2022-09-28T06:40:10.819Z,2.50
2022-09-28T06:41:12.709Z,2.10
2022-09-28T06:42:16.210Z,1.92
2022-09-28T06:43:18.177Z,2.38
2022-09-28T06:44:21.086Z,2.20
2022-09-28T06:45:25.242Z,1.92
2022-09-28T06:46:27.341Z,2.15
2022-09-28T06:47:29.320Z,2.10
2022-09-28T06:48:33.995Z,2.10
2022-09-28T06:49:35.842Z,2.22
2022-09-28T06:50:40.935Z,2.25
2022-09-28T06:51:43.229Z,2.05
2022-09-28T06:52:45.168Z,2.05
2022-09-28T06:53:47.463Z,2.20
2022-09-28T06:54:49.163Z,2.13
2022-09-28T06:55:51.990Z,1.70
2022-09-28T06:56:53.975Z,2.20
2022-09-28T06:58:07.423Z,1.92
2022-09-28T06:59:09.099Z,2.38
2022-09-28T07:00:11.669Z,2.10
2022-09-28T07:01:13.459Z,1.95
2022-09-28T07:02:15.365Z,1.70
2022-09-28T07:03:20.460Z,1.77
2022-09-28T07:04:22.380Z,1.70
2022-09-28T07:05:27.726Z,1.92
2022-09-28T07:06:31.672Z,2.10
2022-09-28T07:07:33.927Z,1.70
2022-09-28T07:08:35.918Z,1.83
2022-09-28T07:09:43.758Z,1.90
2022-09-28T07:10:50.256Z,1.92
2022-09-28T07:11:53.148Z,2.20
2022-09-28T07:12:56.949Z,2.10
2022-09-28T07:13:58.745Z,1.77
2022-09-28T07:15:00.676Z,1.70
2022-09-28T07:16:02.404Z,1.80
2022-09-28T07:17:13.610Z,2.20
2022-09-28T07:18:18.873Z,1.65
2022-09-28T07:19:20.933Z,2.00
2022-09-28T07:20:22.665Z,1.70
2022-09-28T07:21:29.926Z,1.70
2022-09-28T07:22:42.488Z,2.25
2022-09-28T07:23:53.184Z,1.70
2022-09-28T07:24:55.851Z,1.77
2022-09-28T07:25:58.427Z,1.73
2022-09-28T07:27:00.283Z,4.18
2022-09-28T07:28:04.583Z,1.95
2022-09-28T07:29:06.461Z,1.60
2022-09-28T07:30:08.782Z,1.85
2022-09-28T07:31:10.996Z,1.77
2022-09-28T07:32:12.955Z,1.58
2022-09-28T07:33:16.272Z,1.70
2022-09-28T07:34:18.618Z,1.85
2022-09-28T07:35:20.758Z,1.52
2022-09-28T07:36:23.076Z,1.58
2022-09-28T07:37:26.702Z,1.40
2022-09-28T07:38:28.898Z,1.75
2022-09-28T07:39:30.769Z,1.73
2022-09-28T07:40:53.038Z,1.50
2022-09-28T07:41:59.614Z,1.70
2022-09-28T07:43:08.574Z,1.77
2022-09-28T07:44:10.402Z,1.63
2022-09-28T07:45:12.202Z,1.60
2022-09-28T07:46:14.171Z,1.60
2022-09-28T07:47:16.651Z,1.77
2022-09-28T07:48:19.513Z,1.27
2022-09-28T07:49:23.103Z,1.60
2022-09-28T07:50:25.454Z,1.42
2022-09-28T07:51:30.263Z,1.55
2022-09-28T07:52:34.834Z,1.70
2022-09-28T07:53:38.542Z,1.90
2022-09-28T07:54:40.426Z,1.63
2022-09-28T07:55:42.508Z,1.70
2022-09-28T07:56:44.407Z,1.50
2022-09-28T07:57:48.071Z,1.73
2022-09-28T07:58:50.055Z,1.70
2022-09-28T07:59:53.917Z,1.50
2022-09-28T08:00:56.036Z,1.60
2022-09-28T08:01:59.042Z,1.83
2022-09-28T08:03:03.917Z,1.38
2022-09-28T08:04:06.609Z,1.50
2022-09-28T08:05:10.125Z,1.50
2022-09-28T08:06:14.490Z,1.75
2022-09-28T08:07:21.572Z,1.52
2022-09-28T08:08:25.367Z,1.48
2022-09-28T08:09:27.045Z,1.38
2022-09-28T08:10:34.093Z,1.45
2022-09-28T08:11:44.040Z,1.17
2022-09-28T08:12:47.183Z,1.50
2022-09-28T08:13:49.444Z,2.35
2022-09-28T08:14:52.377Z,1.70
2022-09-28T08:15:54.998Z,1.35
2022-09-28T08:16:56.670Z,1.30
2022-09-28T08:18:02.012Z,1.40
2022-09-28T08:19:07.245Z,1.20
2022-09-28T08:20:28.844Z,1.42
2022-09-28T08:21:45.465Z,1.15
2022-09-28T08:22:47.142Z,1.40
2022-09-28T08:23:49.286Z,1.30
2022-09-28T08:24:52.614Z,1.30
2022-09-28T08:25:57.627Z,1.20
2022-09-28T08:27:02.238Z,1.30
2022-09-28T08:28:09.774Z,1.33
2022-09-28T08:29:13.899Z,1.00
2022-09-28T08:30:16.725Z,1.20
2022-09-28T08:31:20.167Z,1.30
2022-09-28T08:32:22.089Z,1.17
2022-09-28T08:33:23.778Z,1.33
2022-09-28T08:34:27.238Z,1.30
2022-09-28T08:35:28.915Z,1.17
2022-09-28T08:36:30.710Z,1.50
2022-09-28T08:37:32.344Z,1.20
2022-09-28T08:38:34.262Z,1.20
2022-09-28T08:39:36.619Z,1.27
2022-09-28T08:40:50.452Z,1.38
2022-09-28T08:42:29.554Z,1.67
2022-09-28T08:43:57.417Z,1.35
2022-09-28T08:45:07.184Z,1.20
2022-09-28T08:46:13.441Z,1.40
2022-09-28T08:47:47.545Z,1.25
2022-09-28T08:49:32.213Z,1.33
2022-09-28T08:50:38.590Z,1.45
2022-09-28T08:51:55.371Z,1.45
2022-09-28T08:53:02.916Z,1.27
2022-09-28T08:54:13.857Z,1.30
2022-09-28T08:55:31.877Z,1.27
2022-09-28T08:56:54.271Z,1.33
2022-09-28T08:58:02.432Z,1.40
2022-09-28T08:59:10.490Z,1.20
2022-09-28T09:00:32.435Z,1.05
2022-09-28T09:01:47.718Z,1.10
2022-09-28T09:02:53.203Z,1.13
2022-09-28T09:03:57.463Z,1.15
2022-09-28T09:05:14.761Z,1.40
2022-09-28T09:06:34.492Z,1.40
2022-09-28T09:07:44.425Z,1.08
2022-09-28T09:09:22.728Z,1.20
2022-09-28T09:10:31.747Z,1.63
2022-09-28T09:12:05.602Z,1.20
2022-09-28T09:13:28.716Z,1.70
2022-09-28T09:14:41.721Z,1.40
2022-09-28T09:16:01.686Z,1.48
2022-09-28T09:17:23.953Z,1.73
2022-09-28T09:18:50.079Z,1.38
2022-09-28T09:19:54.828Z,1.67
2022-09-28T09:21:07.559Z,1.63
2022-09-28T09:22:16.951Z,1.40
2022-09-28T09:23:39.492Z,1.83
2022-09-28T09:24:57.089Z,2.08
2022-09-28T09:26:15.250Z,1.40
2022-09-28T09:27:57.047Z,1.73
2022-09-28T09:29:47.399Z,1.48
2022-09-28T09:31:12.741Z,2.90
2022-09-28T09:32:36.065Z,3.22
2022-09-28T09:33:45.842Z,4.18
2022-09-28T09:35:41.785Z,3.83
2022-09-28T09:38:59.161Z,1.40
2022-09-28T09:40:21.223Z,1.25
2022-09-28T09:41:48.308Z,1.20
2022-09-28T09:42:49.960Z,1.60
2022-09-28T09:44:15.088Z,1.80
2022-09-28T09:45:47.764Z,1.38
2022-09-28T09:46:58.051Z,1.55
2022-09-28T09:48:06.498Z,1.23
2022-09-28T09:49:15.029Z,1.25
2022-09-28T09:50:16.964Z,1.42
2022-09-28T09:51:49.311Z,1.20
2022-09-28T09:53:13.703Z,0.95
2022-09-28T09:54:28.579Z,1.20
2022-09-28T09:55:44.576Z,1.50
2022-09-28T09:56:54.809Z,1.30
2022-09-28T09:58:04.084Z,1.50
2022-09-28T09:59:10.355Z,1.67
2022-09-28T10:00:15.820Z,1.85
2022-09-28T10:01:21.235Z,1.50
2022-09-28T10:02:26.371Z,1.30
2022-09-28T10:03:32.698Z,1.20
2022-09-28T10:04:42.620Z,1.33
2022-09-28T10:05:50.533Z,1.27
2022-09-28T10:06:58.875Z,1.52
2022-09-28T10:08:05.032Z,1.65
2022-09-28T10:09:26.078Z,1.27
2022-09-28T10:10:36.990Z,1.20
2022-09-28T10:11:45.350Z,1.45
2022-09-28T10:12:49.663Z,1.50
2022-09-28T10:13:52.286Z,1.25
2022-09-28T10:14:55.451Z,1.70
2022-09-28T10:15:57.463Z,1.25
2022-09-28T10:17:01.005Z,1.45
2022-09-28T10:18:10.950Z,1.40
2022-09-28T10:19:13.695Z,1.33
2022-09-28T10:20:16.621Z,1.35
2022-09-28T10:21:21.793Z,1.25
2022-09-28T10:22:27.392Z,2.20
2022-09-28T10:23:34.005Z,1.70
2022-09-28T10:24:41.403Z,1.20
2022-09-28T10:25:45.958Z,0.80
2022-09-28T10:26:52.120Z,1.20
2022-09-28T10:27:55.340Z,1.40
2022-09-28T10:29:04.400Z,1.30
2022-09-28T10:30:23.292Z,1.50
2022-09-28T10:31:34.441Z,1.00
2022-09-28T10:33:39.779Z,1.10
2022-09-28T10:34:41.584Z,0.90
2022-09-28T10:35:43.985Z,1.10
2022-09-28T10:36:58.528Z,1.25
2022-09-28T10:38:18.738Z,1.30
2022-09-28T10:39:30.225Z,1.55
2022-09-28T10:40:56.307Z,1.35
2022-09-28T10:42:18.943Z,1.30
2022-09-28T10:43:35.287Z,1.20
2022-09-28T10:45:15.539Z,1.23
2022-09-28T10:46:24.554Z,1.10
2022-09-28T10:47:30.548Z,1.10
2022-09-28T10:48:57.824Z,1.15
2022-09-28T10:50:00.984Z,1.27
2022-09-28T10:51:08.864Z,1.17
2022-09-28T10:52:36.974Z,1.10
2022-09-28T10:53:39.557Z,2.25
2022-09-28T10:54:57.187Z,1.30
2022-09-28T10:56:08.242Z,1.20
2022-09-28T10:58:44.835Z,0.90
2022-09-28T10:59:58.262Z,1.05
2022-09-28T11:01:26.751Z,0.82
2022-09-28T11:02:42.195Z,1.25
2022-09-28T11:04:00.980Z,1.30
2022-09-28T11:05:25.030Z,0.93
2022-09-28T11:06:46.973Z,1.38
2022-09-28T11:07:51.710Z,1.55
2022-09-28T11:08:57.518Z,1.63
2022-09-28T11:10:37.039Z,1.40
2022-09-28T11:11:53.037Z,1.77
2022-09-28T11:13:10.247Z,1.80
2022-09-28T11:14:47.428Z,2.00
2022-09-28T11:15:51.895Z,1.77
2022-09-28T11:17:45.387Z,1.30
2022-09-28T11:18:51.451Z,1.20
2022-09-28T11:20:27.538Z,1.70
2022-09-28T11:21:42.382Z,1.60
2022-09-28T11:23:04.761Z,1.50
2022-09-28T11:24:20.339Z,1.35
2022-09-28T11:25:26.158Z,1.27
2022-09-28T11:26:37.818Z,2.33
2022-09-28T11:28:01.467Z,2.17
2022-09-28T11:29:08.603Z,3.17
2022-09-28T11:30:46.153Z,2.58
2022-09-28T11:31:51.245Z,1.92
2022-09-28T11:32:56.519Z,1.98
2022-09-28T11:34:16.600Z,1.90
2022-09-28T11:35:23.465Z,2.30
2022-09-28T11:36:43.993Z,2.58
2022-09-28T11:38:17.499Z,1.50
2022-09-28T11:39:57.974Z,1.33
2022-09-28T11:41:10.801Z,1.65
2022-09-28T11:42:18.046Z,1.95
2022-09-28T11:43:38.547Z,1.50
2022-09-28T11:44:46.774Z,1.73
2022-09-28T11:45:57.184Z,1.65
2022-09-28T11:47:28.739Z,1.50
2022-09-28T11:48:41.423Z,1.73
2022-09-28T11:50:07.844Z,2.00
2022-09-28T11:51:18.247Z,1.38
2022-09-28T11:52:34.987Z,1.50
2022-09-28T11:53:45.330Z,1.50
2022-09-28T11:55:22.660Z,2.03
2022-09-28T11:56:38.591Z,1.40
2022-09-28T11:57:45.152Z,1.55
2022-09-28T11:58:53.423Z,1.40
2022-09-28T12:00:09.515Z,1.30
2022-09-28T12:01:43.314Z,1.83
2022-09-28T12:03:01.407Z,1.40
2022-09-28T12:04:10.293Z,1.20
2022-09-28T12:05:28.598Z,1.92
2022-09-28T12:06:46.094Z,1.10
2022-09-28T12:08:02.117Z,1.30
2022-09-28T12:09:11.713Z,1.80
2022-09-28T12:10:25.101Z,1.33
2022-09-28T12:11:33.971Z,1.50
2022-09-28T12:13:03.264Z,1.40
2022-09-28T12:14:11.563Z,1.40
2022-09-28T12:15:16.723Z,1.45
2022-09-28T12:17:04.067Z,1.50
2022-09-28T12:18:13.413Z,1.23
2022-09-28T12:19:37.809Z,1.25
2022-09-28T12:20:44.924Z,1.10
2022-09-28T12:22:09.200Z,1.10
2022-09-28T12:23:17.140Z,1.30
2022-09-28T12:24:27.396Z,0.93
2022-09-28T12:25:37.544Z,1.48
2022-09-28T12:26:43.619Z,1.10
2022-09-28T12:27:58.567Z,1.27
2022-09-28T12:29:04.589Z,1.30
2022-09-28T12:30:28.054Z,1.30
2022-09-28T12:31:45.890Z,1.40
2022-09-28T12:32:53.320Z,1.40
2022-09-28T12:33:55.585Z,1.58
2022-09-28T12:34:59.100Z,1.70
2022-09-28T12:36:41.717Z,2.30
2022-09-28T12:38:21.190Z,2.17
2022-09-28T12:39:53.492Z,2.30
2022-09-28T12:41:06.551Z,1.83
2022-09-28T12:42:31.726Z,2.20
2022-09-28T12:44:03.917Z,1.88
2022-09-28T12:45:18.984Z,3.00
2022-09-28T12:46:39.330Z,2.60
2022-09-28T12:48:02.761Z,2.70
2022-09-28T12:50:36.571Z,2.70
2022-09-28T12:51:06.244Z,3.40
2022-09-28T12:52:29.909Z,2.35
2022-09-28T12:53:55.051Z,2.50
2022-09-28T12:55:16.239Z,1.67
2022-09-28T12:56:28.718Z,1.30
2022-09-28T12:57:45.148Z,1.65
2022-09-28T12:59:18.236Z,1.98
2022-09-28T13:00:23.312Z,1.52
2022-09-28T13:01:54.013Z,1.75
2022-09-28T13:03:34.084Z,2.38
2022-09-28T13:04:49.931Z,1.77
2022-09-28T13:06:31.033Z,1.90
2022-09-28T13:07:42.853Z,1.50
2022-09-28T13:09:01.475Z,2.33
2022-09-28T13:10:33.851Z,2.13
2022-09-28T13:11:46.938Z,2.40
2022-09-28T13:13:04.588Z,2.00
2022-09-28T13:14:24.504Z,1.40
2022-09-28T13:15:41.070Z,1.77
2022-09-28T13:16:58.400Z,1.40
2022-09-28T13:18:12.113Z,1.70
2022-09-28T13:19:14.138Z,1.90
2022-09-28T13:20:39.038Z,1.85
2022-09-28T13:21:50.809Z,1.70
2022-09-28T13:23:15.748Z,1.52
2022-09-28T13:24:33.330Z,1.58
2022-09-28T13:25:39.525Z,1.73
2022-09-28T13:26:45.461Z,1.90
2022-09-28T13:28:05.089Z,1.67
2022-09-28T13:29:14.215Z,1.13
2022-09-28T13:30:18.169Z,1.20
2022-09-28T13:31:26.692Z,1.10
2022-09-28T13:32:33.051Z,1.35
2022-09-28T13:33:43.929Z,1.58
2022-09-28T13:34:50.195Z,1.40
2022-09-28T13:35:51.945Z,1.75
2022-09-28T13:37:18.914Z,1.42
2022-09-28T13:38:23.383Z,1.10
2022-09-28T13:39:44.491Z,1.88
2022-09-28T13:41:04.285Z,1.58
2022-09-28T13:42:07.963Z,1.40
2022-09-28T13:43:31.449Z,1.48
2022-09-28T13:45:02.704Z,1.80
2022-09-28T13:46:20.460Z,1.65
2022-09-28T13:47:49.629Z,1.80
2022-09-28T13:49:05.677Z,1.55
2022-09-28T13:50:27.754Z,1.40
2022-09-28T13:51:43.016Z,1.42
2022-09-28T13:52:52.154Z,2.00
2022-09-28T13:54:41.386Z,1.67
2022-09-28T13:56:10.714Z,1.15
2022-09-28T13:57:29.987Z,1.40
2022-09-28T13:58:38.551Z,1.30
2022-09-28T14:00:02.573Z,1.75
2022-09-28T14:01:10.576Z,1.40
2022-09-28T14:02:40.273Z,1.50
2022-09-28T14:04:18.568Z,1.25
2022-09-28T14:05:25.089Z,1.40
2022-09-28T14:06:31.500Z,1.80
2022-09-28T14:07:36.142Z,1.60
2022-09-28T14:08:38.368Z,2.05
2022-09-28T14:09:41.756Z,1.80
2022-09-28T14:10:53.501Z,1.60
2022-09-28T14:12:01.448Z,1.98
2022-09-28T14:13:06.540Z,2.20
2022-09-28T14:14:14.088Z,1.80
2022-09-28T14:15:37.412Z,1.80
2022-09-28T14:16:41.030Z,2.10
2022-09-28T14:18:26.091Z,1.85
2022-09-28T14:19:33.998Z,1.70
2022-09-28T14:20:36.975Z,1.52
2022-09-28T14:22:13.710Z,1.73
2022-09-28T14:23:36.817Z,1.80
2022-09-28T14:25:06.427Z,1.60
2022-09-28T14:26:20.850Z,1.50
2022-09-28T14:27:37.528Z,1.23
2022-09-28T14:28:55.559Z,1.63
2022-09-28T14:30:11.552Z,1.30
2022-09-28T14:31:25.653Z,1.60
2022-09-28T14:32:37.017Z,1.60
2022-09-28T14:33:39.379Z,1.58
2022-09-28T14:34:44.805Z,1.20
2022-09-28T14:36:40.913Z,1.45
2022-09-28T14:38:01.618Z,1.55
2022-09-28T14:39:21.895Z,1.30
2022-09-28T14:40:51.181Z,1.55
2022-09-28T14:41:53.225Z,1.50
2022-09-28T14:43:26.400Z,1.38
2022-09-28T14:44:28.196Z,1.33
2022-09-28T14:45:38.265Z,1.60
2022-09-28T14:46:45.653Z,1.60
2022-09-28T14:48:13.931Z,1.50
2022-09-28T14:49:19.163Z,1.80
2022-09-28T14:50:24.913Z,1.70
2022-09-28T14:51:26.716Z,1.50
2022-09-28T14:53:08.927Z,1.58
2022-09-28T14:54:10.844Z,1.30
2022-09-28T14:55:15.044Z,1.60
2022-09-28T14:56:20.330Z,1.50
2022-09-28T14:57:28.526Z,1.92
2022-09-28T14:58:32.464Z,2.17
2022-09-28T14:59:42.801Z,1.33
2022-09-28T15:00:46.046Z,1.60
2022-09-28T15:01:57.864Z,1.45
2022-09-28T15:03:03.451Z,1.50
2022-09-28T15:04:11.275Z,1.60
2022-09-28T15:05:27.485Z,1.58
2022-09-28T15:06:47.932Z,1.35
2022-09-28T15:07:54.348Z,1.52
2022-09-28T15:08:56.179Z,1.60
2022-09-28T15:10:16.846Z,1.40
2022-09-28T15:11:25.620Z,1.50
2022-09-28T15:12:32.301Z,1.45
2022-09-28T15:13:45.832Z,1.60
2022-09-28T15:15:00.375Z,1.52
2022-09-28T15:16:28.594Z,1.85
2022-09-28T15:17:41.534Z,1.60
2022-09-28T15:19:06.810Z,1.65
2022-09-28T15:20:31.935Z,2.13
2022-09-28T15:21:46.294Z,1.50
2022-09-28T15:22:50.802Z,1.70
2022-09-28T15:23:54.699Z,2.10
2022-09-28T15:25:01.997Z,1.80
2022-09-28T15:26:19.229Z,1.65
2022-09-28T15:27:39.453Z,1.88
2022-09-28T15:28:44.924Z,2.65
2022-09-28T15:30:00.119Z,2.15
2022-09-28T15:31:05.647Z,2.25
2022-09-28T15:32:27.098Z,1.88
2022-09-28T15:33:52.910Z,2.20
2022-09-28T15:34:57.963Z,2.15
2022-09-28T15:36:05.587Z,2.15